Terminal Aerodrome Forecast
Issued by NWS

Home | Current Version | Previous Version | Graphics & Text | Print | Product List | Glossary On
Versions: 1 2 3 4 5 6 7 8 9 10 11 12 13 14 15 16 17 18 19 20 21
000
FTUS42 KMHX 052338
TAFISO
TAF
KISO 052338Z 0600/0624 01016G23KT 3SM -RAPL OVC007
     FM060700 02016G24KT P6SM OVC010
     FM061200 01010KT P6SM SCT040
     FM061800 02008KT P6SM SCT250
      AMD LTD TO CLD VIS AND WIND=

USA.gov is the U.S. government's official web portal to all federal, state and local government web resources and services.